createdAt,value
2023-05-14T00:00:26.377Z,5.17
2023-05-14T00:01:26.779Z,5.16
2023-05-14T00:02:27.454Z,5.16
2023-05-14T00:03:27.509Z,5.16
2023-05-14T00:04:27.882Z,5.17
2023-05-14T00:05:28.202Z,5.16
2023-05-14T00:06:28.563Z,5.12
2023-05-14T00:07:28.868Z,5.07
2023-05-14T00:08:29.391Z,5.04
2023-05-14T00:09:30.116Z,5.01
2023-05-14T00:10:30.023Z,5.01
2023-05-14T00:11:30.551Z,5.03
2023-05-14T00:12:30.701Z,5
2023-05-14T00:13:30.951Z,5
2023-05-14T00:14:31.673Z,4.95
2023-05-14T00:15:34.210Z,4.97
2023-05-14T00:16:32.146Z,4.98
2023-05-14T00:17:32.383Z,5.01
2023-05-14T00:18:33.319Z,5.02
2023-05-14T00:19:33.210Z,5.01
2023-05-14T00:20:33.425Z,5.01
2023-05-14T00:21:33.988Z,5.01
2023-05-14T00:22:35.026Z,5.01
2023-05-14T00:23:34.806Z,5
2023-05-14T00:24:35.744Z,4.93
2023-05-14T00:25:35.607Z,4.9
2023-05-14T00:26:35.851Z,4.84
2023-05-14T00:27:36.586Z,4.78
2023-05-14T00:28:36.501Z,4.77
2023-05-14T00:29:37.002Z,4.74
2023-05-14T00:30:37.110Z,4.72
2023-05-14T00:31:37.745Z,4.68
2023-05-14T00:32:37.936Z,4.62
2023-05-14T00:33:38.267Z,4.54
2023-05-14T00:34:38.530Z,4.53
2023-05-14T00:35:39.094Z,4.51
2023-05-14T00:36:39.331Z,4.5
2023-05-14T00:37:39.623Z,4.5
2023-05-14T00:38:40.040Z,4.49
2023-05-14T00:39:40.342Z,4.47
2023-05-14T00:40:41.278Z,4.46
2023-05-14T00:41:41.174Z,4.46
2023-05-14T00:42:41.386Z,4.46
2023-05-14T00:43:41.917Z,4.48
2023-05-14T00:44:42.175Z,4.48
2023-05-14T00:45:42.852Z,4.46
2023-05-14T00:46:42.982Z,4.46
2023-05-14T00:47:44.105Z,4.46
2023-05-14T00:48:45.168Z,4.48
2023-05-14T00:49:44.317Z,4.5
2023-05-14T00:50:44.633Z,4.5
2023-05-14T00:51:45.051Z,4.46
2023-05-14T00:52:45.142Z,4.46
2023-05-14T00:53:46.581Z,4.44
2023-05-14T00:54:47.978Z,4.44
2023-05-14T00:55:47.203Z,4.44
2023-05-14T00:56:47.363Z,4.44
2023-05-14T00:57:47.126Z,4.44
2023-05-14T00:58:47.230Z,4.43
2023-05-14T00:59:47.767Z,4.39
2023-05-14T01:00:47.874Z,4.33
2023-05-14T01:01:48.060Z,4.28
2023-05-14T01:02:48.802Z,4.26
2023-05-14T01:03:49.359Z,4.22
2023-05-14T01:04:50.051Z,4.22
2023-05-14T01:10:15.871Z,4.13
2023-05-14T01:15:31.690Z,4.15
2023-05-14T01:16:20.710Z,4.13
2023-05-14T01:17:22.058Z,4.12
2023-05-14T01:18:20.731Z,4.12
2023-05-14T01:20:22.723Z,4.08
2023-05-14T01:22:26.806Z,4.16
2023-05-14T01:23:27.168Z,4.13
2023-05-14T01:24:27.552Z,4.09
2023-05-14T01:25:29.179Z,4.04
2023-05-14T01:26:28.211Z,4
2023-05-14T01:28:33.920Z,3.73
2023-05-14T01:29:34.216Z,3.71
2023-05-14T01:31:36.835Z,3.78
2023-05-14T01:32:34.526Z,3.79
2023-05-14T01:33:36.712Z,3.84
2023-05-14T01:34:37.647Z,3.83
2023-05-14T01:35:35.617Z,3.89
2023-05-14T01:36:36.309Z,3.88
2023-05-14T01:37:38.477Z,3.86
2023-05-14T01:38:37.569Z,3.9
2023-05-14T01:39:38.116Z,3.93
2023-05-14T01:40:37.599Z,3.91
2023-05-14T01:41:38.492Z,3.88
2023-05-14T01:42:38.860Z,3.84
2023-05-14T01:43:39.352Z,3.82
2023-05-14T01:44:38.623Z,3.82
2023-05-14T01:45:38.905Z,3.81
2023-05-14T01:46:39.534Z,3.82
2023-05-14T01:47:39.534Z,3.81
2023-05-14T01:48:39.976Z,3.81
2023-05-14T01:49:40.598Z,3.78
2023-05-14T01:50:40.925Z,3.79
2023-05-14T01:51:40.956Z,3.76
2023-05-14T01:52:41.442Z,3.74
2023-05-14T01:53:41.761Z,3.73
2023-05-14T01:54:41.962Z,3.71
2023-05-14T01:55:42.378Z,3.73
2023-05-14T01:56:42.813Z,3.76
2023-05-14T01:57:43.211Z,3.76
2023-05-14T01:58:43.527Z,3.7
2023-05-14T01:59:43.736Z,3.65
2023-05-14T02:00:44.149Z,3.6
2023-05-14T02:01:44.602Z,3.57
2023-05-14T02:02:44.888Z,3.56
2023-05-14T02:03:45.389Z,3.62
2023-05-14T02:04:45.610Z,3.65
2023-05-14T02:05:45.831Z,3.68
2023-05-14T02:06:46.232Z,3.68
2023-05-14T02:07:46.656Z,3.7
2023-05-14T02:08:47.103Z,3.65
2023-05-14T02:09:47.277Z,3.62
2023-05-14T02:10:47.713Z,3.57
2023-05-14T02:11:47.927Z,3.55
2023-05-14T02:12:48.418Z,3.59
2023-05-14T02:13:48.907Z,3.63
2023-05-14T02:14:49.040Z,3.68
2023-05-14T02:15:49.775Z,3.67
2023-05-14T02:16:50.106Z,3.61
2023-05-14T02:17:50.258Z,3.59
2023-05-14T02:18:50.621Z,3.59
2023-05-14T02:19:50.847Z,3.6
2023-05-14T02:20:51.149Z,3.61
2023-05-14T02:21:51.454Z,3.67
2023-05-14T02:22:51.996Z,3.69
2023-05-14T02:23:52.296Z,3.72
2023-05-14T02:24:52.663Z,3.75
2023-05-14T02:25:52.933Z,3.75
2023-05-14T02:26:53.352Z,3.77
2023-05-14T02:27:53.599Z,3.7
2023-05-14T02:28:53.967Z,3.67
2023-05-14T02:29:54.291Z,3.64
2023-05-14T02:30:59.431Z,3.67
2023-05-14T02:31:57.465Z,3.7
2023-05-14T02:32:57.444Z,3.69
2023-05-14T02:33:57.532Z,3.71
2023-05-14T02:34:57.896Z,3.73
2023-05-14T02:35:58.235Z,3.71
2023-05-14T02:36:58.633Z,3.69
2023-05-14T02:37:58.836Z,3.67
2023-05-14T02:39:00.595Z,3.69
2023-05-14T02:39:59.776Z,3.64
2023-05-14T02:40:59.883Z,3.62
2023-05-14T02:42:00.408Z,3.57
2023-05-14T02:43:00.616Z,3.56
2023-05-14T02:44:01.034Z,3.6
2023-05-14T02:45:01.456Z,3.64
2023-05-14T02:46:01.758Z,3.68
2023-05-14T02:47:02.448Z,3.71
2023-05-14T02:48:02.458Z,3.73
2023-05-14T02:49:03.018Z,3.71
2023-05-14T02:50:03.425Z,3.72
2023-05-14T02:51:04.048Z,3.75
2023-05-14T02:52:04.363Z,3.78
2023-05-14T02:53:04.272Z,3.79
2023-05-14T02:54:05.096Z,3.77
2023-05-14T02:55:05.614Z,3.81
2023-05-14T02:56:05.720Z,3.86
2023-05-14T02:57:05.715Z,3.9
2023-05-14T02:58:05.942Z,3.97
2023-05-14T02:59:06.455Z,4
2023-05-14T03:00:08.011Z,4.06
2023-05-14T03:01:07.566Z,4.04
2023-05-14T03:02:07.382Z,4.04
2023-05-14T03:03:07.735Z,4.06
2023-05-14T03:04:08.020Z,4.05
2023-05-14T03:05:09.079Z,4.07
2023-05-14T03:06:08.645Z,4.09
2023-05-14T03:07:09.166Z,4.1
2023-05-14T03:08:09.494Z,4.09
2023-05-14T03:09:10.098Z,4.12
2023-05-14T03:10:10.825Z,4.12
2023-05-14T03:11:10.544Z,4.13
2023-05-14T03:12:11.148Z,4.19
2023-05-14T03:13:11.263Z,4.21
2023-05-14T03:14:11.899Z,4.26
2023-05-14T03:15:12.116Z,4.3
2023-05-14T03:16:12.244Z,4.35
2023-05-14T03:17:12.867Z,4.38
2023-05-14T03:18:13.584Z,4.41
2023-05-14T03:19:13.568Z,4.46
2023-05-14T03:20:13.722Z,4.51
2023-05-14T03:21:14.065Z,4.53
2023-05-14T03:22:14.758Z,4.56
2023-05-14T03:23:15.439Z,4.59
2023-05-14T03:24:15.214Z,4.65
2023-05-14T03:25:15.540Z,4.69
2023-05-14T03:26:16.070Z,4.74
2023-05-14T03:27:16.390Z,4.82
2023-05-14T03:28:16.489Z,4.87
2023-05-14T03:29:17.005Z,4.97
2023-05-14T03:30:17.631Z,5.1
2023-05-14T03:31:17.766Z,5.26
2023-05-14T03:32:18.164Z,5.37
2023-05-14T03:33:18.348Z,5.58
2023-05-14T03:34:18.770Z,5.84
2023-05-14T03:35:19.404Z,6.04
2023-05-14T03:36:19.405Z,6.21
2023-05-14T03:37:20.118Z,6.08
2023-05-14T03:38:20.192Z,5.97
2023-05-14T03:39:20.749Z,6
2023-05-14T03:40:21.014Z,6.06
2023-05-14T03:41:21.389Z,6.16
2023-05-14T03:42:21.706Z,6.16
2023-05-14T03:43:22.106Z,6.13
2023-05-14T03:44:22.420Z,6.09
2023-05-14T03:45:22.843Z,6.18
2023-05-14T03:46:23.250Z,6.25
2023-05-14T03:47:23.512Z,6.3
2023-05-14T03:48:23.957Z,6.33
2023-05-14T03:49:25.630Z,6.36
2023-05-14T03:50:24.719Z,6.4
2023-05-14T03:51:24.927Z,6.38
2023-05-14T03:52:25.391Z,6.42
2023-05-14T03:53:25.666Z,6.48
2023-05-14T03:54:26.714Z,6.5
2023-05-14T03:55:26.483Z,6.6
2023-05-14T03:56:26.994Z,6.66
2023-05-14T03:57:27.228Z,6.77
2023-05-14T03:58:27.679Z,6.9
2023-05-14T03:59:28.397Z,7.05
2023-05-14T04:00:28.688Z,7.22
2023-05-14T04:01:28.697Z,7.28
2023-05-14T04:02:29.155Z,7.34
2023-05-14T04:03:29.561Z,7.43
2023-05-14T04:04:30.069Z,7.49
2023-05-14T04:05:30.160Z,7.49
2023-05-14T04:06:30.572Z,7.62
2023-05-14T04:07:30.909Z,7.61
2023-05-14T04:08:31.299Z,7.74
2023-05-14T04:09:32.105Z,7.79
2023-05-14T04:10:32.116Z,7.86
2023-05-14T04:11:32.530Z,7.97
2023-05-14T04:12:32.950Z,7.98
2023-05-14T04:13:33.364Z,8.08
2023-05-14T04:14:33.774Z,8.17
2023-05-14T04:15:33.982Z,8.25
2023-05-14T04:16:34.612Z,8.3
2023-05-14T04:17:35.353Z,8.37
2023-05-14T04:18:35.234Z,8.43
2023-05-14T04:19:35.752Z,8.51
2023-05-14T04:20:35.993Z,8.54
2023-05-14T04:21:36.286Z,8.62
2023-05-14T04:22:36.794Z,8.73
2023-05-14T04:23:37.215Z,8.82
2023-05-14T04:24:37.535Z,8.87
2023-05-14T04:25:38.060Z,8.88
2023-05-14T04:26:38.369Z,8.97
2023-05-14T04:27:38.524Z,9.02
2023-05-14T04:28:39.019Z,9.1
2023-05-14T04:29:39.356Z,9.18
2023-05-14T04:30:39.709Z,9.27
2023-05-14T04:31:40.371Z,9.34
2023-05-14T04:32:40.694Z,9.41
2023-05-14T04:33:41.013Z,9.47
2023-05-14T04:34:41.455Z,9.59
2023-05-14T04:35:42.011Z,9.64
2023-05-14T04:36:42.334Z,9.74
2023-05-14T04:37:42.530Z,9.77
2023-05-14T04:38:43.046Z,9.87
2023-05-14T04:39:43.591Z,9.95
2023-05-14T04:40:43.812Z,10.01
2023-05-14T04:41:44.292Z,10.04
2023-05-14T04:42:44.560Z,10.13
2023-05-14T04:43:44.865Z,10.21
2023-05-14T04:44:45.373Z,10.26
2023-05-14T04:45:45.873Z,10.33
2023-05-14T04:46:46.580Z,10.43
2023-05-14T04:47:46.979Z,10.51
2023-05-14T04:48:47.114Z,10.59
2023-05-14T04:49:47.431Z,10.66
2023-05-14T04:50:47.738Z,10.71
2023-05-14T04:51:48.265Z,10.73
2023-05-14T04:52:48.788Z,10.73
2023-05-14T04:53:49.090Z,10.77
2023-05-14T04:54:49.496Z,10.84
2023-05-14T04:55:49.813Z,10.96
2023-05-14T04:56:50.768Z,11.09
2023-05-14T04:57:50.650Z,11.18
2023-05-14T04:58:51.057Z,11.25
2023-05-14T04:59:51.517Z,11.31
2023-05-14T05:00:51.907Z,11.38
2023-05-14T05:01:52.219Z,11.37
2023-05-14T05:02:52.752Z,11.44
2023-05-14T05:03:53.245Z,11.54
2023-05-14T05:04:53.678Z,11.57
2023-05-14T05:05:54.076Z,11.65
2023-05-14T05:06:54.256Z,11.67
2023-05-14T05:07:55.240Z,11.78
2023-05-14T05:08:56.168Z,11.85
2023-05-14T05:09:55.754Z,11.89
2023-05-14T05:10:55.974Z,11.91
2023-05-14T05:11:56.272Z,12.01
2023-05-14T05:12:56.896Z,12.07
2023-05-14T05:13:57.205Z,12.17
2023-05-14T05:14:58.665Z,12.22
2023-05-14T05:15:58.336Z,12.28
2023-05-14T05:16:58.378Z,12.23
2023-05-14T05:17:59.389Z,12.38
2023-05-14T05:18:59.233Z,12.46
2023-05-14T05:19:59.763Z,12.51
2023-05-14T05:21:00.029Z,12.54
2023-05-14T05:22:00.659Z,12.63
2023-05-14T05:23:01.071Z,12.75
2023-05-14T05:24:01.373Z,12.72
2023-05-14T05:25:02.201Z,12.74
2023-05-14T05:26:02.529Z,12.82
2023-05-14T05:27:02.529Z,12.87
2023-05-14T05:28:03.160Z,12.97
2023-05-14T05:29:06.524Z,13.01
2023-05-14T05:30:04.895Z,13.11
2023-05-14T05:31:04.955Z,13.15
2023-05-14T05:32:05.724Z,13.16
2023-05-14T05:33:05.235Z,13.17
2023-05-14T05:34:05.634Z,13.26
2023-05-14T05:35:07.079Z,13.29
2023-05-14T05:36:07.197Z,13.35
2023-05-14T05:37:07.086Z,13.47
2023-05-14T05:38:07.637Z,13.54
2023-05-14T05:39:07.913Z,13.5
2023-05-14T05:40:09.361Z,13.57
2023-05-14T05:41:08.968Z,13.67
2023-05-14T05:42:09.229Z,13.71
2023-05-14T05:43:09.602Z,13.71
2023-05-14T05:44:10.114Z,13.75
2023-05-14T05:45:11.158Z,13.8
2023-05-14T05:46:11.863Z,13.91
2023-05-14T05:47:11.254Z,13.88
2023-05-14T05:48:11.872Z,13.86
2023-05-14T05:49:12.181Z,13.94
2023-05-14T05:50:12.912Z,14.04
2023-05-14T05:51:13.127Z,14.11
2023-05-14T05:52:13.662Z,14.13
2023-05-14T05:53:14.040Z,14.17
2023-05-14T05:54:14.373Z,14.18
2023-05-14T05:55:15.003Z,14.18
2023-05-14T05:56:15.304Z,14.3
2023-05-14T05:57:15.465Z,14.47
2023-05-14T05:58:16.131Z,14.46
2023-05-14T05:59:16.657Z,14.53
2023-05-14T06:00:17.695Z,14.63
2023-05-14T06:01:17.587Z,14.75
2023-05-14T06:02:18.871Z,14.67
2023-05-14T06:03:18.370Z,14.76
2023-05-14T06:04:18.738Z,14.83
2023-05-14T06:05:19.427Z,14.91
2023-05-14T06:06:19.671Z,15
2023-05-14T06:07:20.081Z,15
2023-05-14T06:08:20.509Z,15.09
2023-05-14T06:09:20.933Z,15.19
2023-05-14T06:10:21.527Z,15.22
2023-05-14T06:11:21.762Z,15.16
2023-05-14T06:12:22.173Z,15.23
2023-05-14T06:13:22.750Z,15.34
2023-05-14T06:14:23.198Z,15.38
2023-05-14T06:15:23.820Z,15.47
2023-05-14T06:16:24.106Z,15.52
2023-05-14T06:17:25.259Z,15.54
2023-05-14T06:18:25.432Z,15.59
2023-05-14T06:19:25.498Z,15.6
2023-05-14T06:20:26.275Z,15.74
2023-05-14T06:21:26.215Z,15.69
2023-05-14T06:22:26.744Z,15.65
2023-05-14T06:23:27.204Z,15.74
2023-05-14T06:24:27.510Z,15.82
2023-05-14T06:25:28.395Z,15.9
2023-05-14T06:26:28.522Z,15.95
2023-05-14T06:27:28.847Z,15.81
2023-05-14T06:28:29.461Z,15.75
2023-05-14T06:29:29.984Z,15.91
2023-05-14T06:30:30.391Z,16
2023-05-14T06:31:31.050Z,16.01
2023-05-14T06:32:31.405Z,16.03
2023-05-14T06:33:31.616Z,15.97
2023-05-14T06:34:32.450Z,16.1
2023-05-14T06:35:33.066Z,16.13
2023-05-14T06:36:32.967Z,16.13
2023-05-14T06:37:33.514Z,16.26
2023-05-14T06:38:34.022Z,16.33
2023-05-14T06:39:34.325Z,16.38
2023-05-14T06:40:34.843Z,16.26
2023-05-14T06:41:35.262Z,16.37
2023-05-14T06:42:35.620Z,16.41
2023-05-14T06:43:36.191Z,16.56
2023-05-14T06:44:36.824Z,16.75
2023-05-14T06:45:37.129Z,16.96
2023-05-14T06:46:37.548Z,16.93
2023-05-14T06:47:38.069Z,16.9
2023-05-14T06:48:38.599Z,16.98
2023-05-14T06:49:39.314Z,16.88
2023-05-14T06:50:40.045Z,16.96
2023-05-14T06:51:39.973Z,17.02
2023-05-14T06:52:40.252Z,16.83
2023-05-14T06:53:41.424Z,16.94
2023-05-14T06:54:41.127Z,17.07
2023-05-14T06:55:41.798Z,16.99
2023-05-14T06:56:42.322Z,16.94
2023-05-14T06:57:42.558Z,17.04
2023-05-14T06:58:43.056Z,17.11
2023-05-14T06:59:43.681Z,17.2
2023-05-14T07:00:44.000Z,17.17
2023-05-14T07:01:44.416Z,17.21
2023-05-14T07:02:44.967Z,17.36
2023-05-14T07:03:45.238Z,17.35
2023-05-14T07:04:45.943Z,17.37
2023-05-14T07:05:46.389Z,17.54
2023-05-14T07:06:46.693Z,17.4
2023-05-14T07:07:47.105Z,17.35
2023-05-14T07:08:47.631Z,17.39
2023-05-14T07:09:48.080Z,17.51
2023-05-14T07:10:48.670Z,17.51
2023-05-14T07:11:49.176Z,17.59
2023-05-14T07:12:49.829Z,17.66
2023-05-14T07:13:50.017Z,17.79
2023-05-14T07:14:50.446Z,17.97
2023-05-14T07:15:51.567Z,18.07
2023-05-14T07:16:51.431Z,18.03
2023-05-14T07:17:51.914Z,17.93
2023-05-14T07:18:52.729Z,17.98
2023-05-14T07:19:52.835Z,17.99
2023-05-14T07:20:53.327Z,17.91
2023-05-14T07:21:53.754Z,17.94
2023-05-14T07:22:54.081Z,17.94
2023-05-14T07:23:54.427Z,18.04
2023-05-14T07:24:55.016Z,18.15
2023-05-14T07:25:55.627Z,18.13
2023-05-14T07:26:56.060Z,18.25
2023-05-14T07:27:56.450Z,18.14
2023-05-14T07:28:56.974Z,18.09
2023-05-14T07:29:57.410Z,18.19
2023-05-14T07:30:57.717Z,18.33
2023-05-14T07:31:58.018Z,18.41
2023-05-14T07:32:58.473Z,18.43
2023-05-14T07:33:58.958Z,18.41
2023-05-14T07:34:59.474Z,18.59
2023-05-14T07:35:59.730Z,18.62
2023-05-14T07:36:59.994Z,18.6
2023-05-14T07:38:00.831Z,18.74
2023-05-14T07:39:01.156Z,18.72
2023-05-14T07:40:01.265Z,18.78
2023-05-14T07:41:01.616Z,18.82
2023-05-14T07:42:01.919Z,18.8
2023-05-14T07:43:02.382Z,18.92
2023-05-14T07:44:02.718Z,18.74
2023-05-14T07:45:03.523Z,18.7
2023-05-14T07:46:03.533Z,18.78
2023-05-14T07:47:04.477Z,18.67
2023-05-14T07:48:04.681Z,18.7
2023-05-14T07:49:04.695Z,18.73
2023-05-14T07:50:05.723Z,18.78
2023-05-14T07:51:05.512Z,18.84
2023-05-14T07:52:06.061Z,19.02
2023-05-14T07:53:06.049Z,19.05
2023-05-14T07:54:06.773Z,18.93
2023-05-14T07:55:07.794Z,19
2023-05-14T07:56:08.428Z,19.21
2023-05-14T07:57:07.512Z,19.36
2023-05-14T07:58:08.120Z,19.25
2023-05-14T07:59:08.338Z,19.18
2023-05-14T08:00:09.339Z,19.08
2023-05-14T08:01:09.284Z,19.07
2023-05-14T08:02:09.425Z,19.09
2023-05-14T08:03:09.830Z,19.12
2023-05-14T08:04:10.487Z,19.15
2023-05-14T08:05:10.526Z,19.19
2023-05-14T08:06:10.997Z,19.26
2023-05-14T08:07:11.466Z,19.39
2023-05-14T08:08:11.771Z,19.46
2023-05-14T08:09:12.100Z,19.49
2023-05-14T08:10:12.752Z,19.49
2023-05-14T08:11:12.878Z,19.52
2023-05-14T08:12:13.356Z,19.47
2023-05-14T08:13:13.756Z,19.42
2023-05-14T08:14:14.007Z,19.42
2023-05-14T08:15:14.481Z,19.49
2023-05-14T08:16:15.601Z,19.49
2023-05-14T08:17:15.230Z,19.44
2023-05-14T08:18:15.481Z,19.3
2023-05-14T08:19:16.973Z,19.4
2023-05-14T08:20:16.479Z,19.4
2023-05-14T08:21:16.779Z,19.34
2023-05-14T08:22:17.202Z,19.42
2023-05-14T08:23:17.612Z,19.45
2023-05-14T08:24:19.064Z,19.59
2023-05-14T08:25:18.552Z,19.7
2023-05-14T08:26:18.665Z,19.69
2023-05-14T08:27:19.285Z,19.72
2023-05-14T08:28:19.485Z,19.54
2023-05-14T08:29:19.708Z,19.53
2023-05-14T08:30:20.541Z,19.57
2023-05-14T08:31:20.521Z,19.67
2023-05-14T08:32:23.711Z,19.44
2023-05-14T08:33:21.883Z,19.35
2023-05-14T08:34:22.290Z,19.31
2023-05-14T08:35:22.623Z,19.55
2023-05-14T08:36:23.035Z,19.67
2023-05-14T08:37:23.193Z,19.75
2023-05-14T08:38:23.648Z,19.82
2023-05-14T08:39:24.059Z,19.98
2023-05-14T08:40:24.521Z,19.98
2023-05-14T08:41:25.717Z,19.9
2023-05-14T08:42:26.575Z,19.88
2023-05-14T08:44:36.609Z,19.83
2023-05-14T08:45:31.045Z,20.1
2023-05-14T08:46:32.719Z,19.95
2023-05-14T08:47:31.595Z,20.16
2023-05-14T08:48:33.317Z,20.22
2023-05-14T08:50:31.722Z,20.4
2023-05-14T08:51:31.716Z,20.25
2023-05-14T08:52:32.652Z,20.14
2023-05-14T08:53:32.467Z,20.18
2023-05-14T08:54:32.751Z,20.13
2023-05-14T08:55:33.737Z,20.2
2023-05-14T08:56:33.743Z,20.17
2023-05-14T08:57:34.723Z,20.11
2023-05-14T08:58:34.227Z,20.04
2023-05-14T08:59:34.537Z,20.15
2023-05-14T09:00:35.721Z,19.89
2023-05-14T09:01:35.584Z,19.94
2023-05-14T09:02:37.687Z,20.05
2023-05-14T09:03:37.105Z,20.12
2023-05-14T09:04:37.251Z,19.97
2023-05-14T09:05:37.636Z,20.09
2023-05-14T09:06:38.283Z,20.09
2023-05-14T09:07:37.873Z,20.13
2023-05-14T09:08:38.205Z,20.27
2023-05-14T09:09:38.799Z,20.34
2023-05-14T09:10:38.931Z,20.25
2023-05-14T09:11:42.867Z,20.27
2023-05-14T09:12:40.360Z,20.36
2023-05-14T09:13:40.771Z,20.24
2023-05-14T09:14:41.498Z,20.17
2023-05-14T09:15:41.510Z,20.06
2023-05-14T09:16:47.328Z,20.23
2023-05-14T09:17:45.862Z,20.29
2023-05-14T09:18:45.986Z,20.43
2023-05-14T09:19:47.347Z,20.66
2023-05-14T09:20:47.580Z,20.93
2023-05-14T09:21:48.106Z,21.03
2023-05-14T09:22:47.284Z,21.13
2023-05-14T09:23:47.396Z,20.9
2023-05-14T09:25:48.182Z,20.62
2023-05-14T09:26:51.418Z,20.78
2023-05-14T09:27:50.658Z,20.65
2023-05-14T09:28:49.202Z,20.83
2023-05-14T09:29:49.673Z,21.1
2023-05-14T09:30:52.970Z,21.31
2023-05-14T09:31:51.384Z,21.31
2023-05-14T09:32:54.506Z,21.14
2023-05-14T09:33:52.732Z,20.98
2023-05-14T09:34:52.284Z,20.88
2023-05-14T09:35:56.433Z,20.98
2023-05-14T09:36:57.310Z,21.19
2023-05-14T09:37:55.850Z,21.18
2023-05-14T09:38:58.607Z,20.92
2023-05-14T09:39:56.198Z,20.38
2023-05-14T09:40:57.234Z,20.44
2023-05-14T09:41:57.260Z,20.53
2023-05-14T09:42:57.623Z,20.59
2023-05-14T09:43:58.064Z,20.67
2023-05-14T09:44:58.395Z,20.61
2023-05-14T09:45:58.644Z,20.79
2023-05-14T09:46:59.294Z,21.1
2023-05-14T09:48:00.690Z,21.24
2023-05-14T09:48:59.865Z,21.2
2023-05-14T09:50:00.212Z,21.16
2023-05-14T09:51:02.713Z,20.99
2023-05-14T09:52:01.403Z,20.87
2023-05-14T09:53:01.926Z,20.87
2023-05-14T09:54:03.967Z,21.04
2023-05-14T09:55:02.672Z,21.05
2023-05-14T09:56:02.860Z,20.72
2023-05-14T09:57:03.396Z,20.41
2023-05-14T09:58:04.199Z,20.55
2023-05-14T09:59:04.533Z,20.78
2023-05-14T10:00:04.954Z,20.84
2023-05-14T10:01:06.094Z,20.79
2023-05-14T10:02:08.943Z,20.58
2023-05-14T10:03:07.812Z,20.55
2023-05-14T10:04:09.586Z,20.69
2023-05-14T10:05:07.996Z,20.84
2023-05-14T10:06:08.257Z,20.78
2023-05-14T10:07:08.530Z,20.99
2023-05-14T10:09:13.975Z,21.24
2023-05-14T10:11:18.937Z,21.53
2023-05-14T10:12:22.012Z,21.19
2023-05-14T10:13:23.790Z,21.18
2023-05-14T10:14:29.423Z,21.18
2023-05-14T10:17:32.136Z,21.24
2023-05-14T10:19:37.370Z,20.9
2023-05-14T10:20:37.735Z,20.97
2023-05-14T10:21:36.849Z,20.9
2023-05-14T10:22:35.821Z,21.08
2023-05-14T10:23:37.253Z,21.25
2023-05-14T10:24:37.380Z,21.06
2023-05-14T10:25:37.410Z,21.26
2023-05-14T10:26:39.661Z,21.2
2023-05-14T10:27:37.814Z,21.2
2023-05-14T10:28:38.195Z,21.16
2023-05-14T10:29:38.674Z,21.18
2023-05-14T10:32:44.660Z,21.59
2023-05-14T10:34:48.487Z,21.56
2023-05-14T10:36:52.163Z,21.8
2023-05-14T10:37:52.599Z,21.59
2023-05-14T10:38:56.195Z,21.49
2023-05-14T10:39:58.955Z,21.11
2023-05-14T10:40:57.731Z,21.04
2023-05-14T10:41:56.933Z,21.21
2023-05-14T10:42:59.762Z,21.24
2023-05-14T10:43:59.174Z,21.46
2023-05-14T10:45:02.590Z,21.33
2023-05-14T10:46:01.189Z,21.42
2023-05-14T10:47:00.487Z,21.48
2023-05-14T10:48:01.076Z,21.63
2023-05-14T10:49:01.317Z,21.64
2023-05-14T10:50:05.157Z,21.7
2023-05-14T10:51:02.805Z,21.79
2023-05-14T10:52:03.037Z,21.7
2023-05-14T10:53:03.350Z,21.58
2023-05-14T10:54:03.959Z,21.63
2023-05-14T10:55:06.633Z,21.36
2023-05-14T10:56:09.633Z,21.43
2023-05-14T10:57:11.392Z,21.28
2023-05-14T10:58:11.055Z,21.68
2023-05-14T10:59:10.441Z,21.98
2023-05-14T11:00:11.282Z,22.21
2023-05-14T11:01:12.201Z,22.34
2023-05-14T11:03:13.245Z,22.31
2023-05-14T11:05:17.421Z,21.79
2023-05-14T11:06:17.094Z,21.61
2023-05-14T11:07:19.511Z,21.68
2023-05-14T11:08:19.013Z,21.76
2023-05-14T11:09:20.895Z,21.67
2023-05-14T11:10:22.493Z,21.68
2023-05-14T11:11:20.590Z,21.8
2023-05-14T11:12:21.796Z,21.92
2023-05-14T11:13:21.753Z,22.22
2023-05-14T11:14:22.935Z,22.38
2023-05-14T11:15:23.482Z,22.53
2023-05-14T11:16:23.728Z,22.19
2023-05-14T11:17:23.273Z,21.99
2023-05-14T11:19:26.680Z,21.98
2023-05-14T11:20:27.057Z,22.09
2023-05-14T11:21:28.005Z,22.23
2023-05-14T11:22:27.853Z,22.17
2023-05-14T11:23:28.827Z,22.04
2023-05-14T11:24:28.536Z,21.68
2023-05-14T11:25:28.855Z,21.82
2023-05-14T11:26:29.497Z,21.86
2023-05-14T11:27:30.083Z,21.8
2023-05-14T11:28:30.507Z,21.95
2023-05-14T11:29:30.611Z,21.87
2023-05-14T11:30:31.753Z,22.04
2023-05-14T11:31:31.696Z,21.69
2023-05-14T11:32:35.369Z,21.64
2023-05-14T11:33:32.661Z,21.9
2023-05-14T11:34:34.136Z,22.11
2023-05-14T11:35:33.575Z,22.28
2023-05-14T11:36:36.833Z,22.34
2023-05-14T11:37:34.367Z,22.24
2023-05-14T11:38:34.885Z,22.46
2023-05-14T11:39:36.318Z,22.45
2023-05-14T11:40:35.701Z,22.48
2023-05-14T11:41:35.973Z,22.49
2023-05-14T11:42:37.463Z,22.71
2023-05-14T11:43:36.853Z,22.68
2023-05-14T11:44:38.454Z,22.56
2023-05-14T11:45:37.741Z,22.66
2023-05-14T11:46:38.028Z,22.86
2023-05-14T11:47:38.408Z,23.02
2023-05-14T11:48:38.906Z,23.19
2023-05-14T11:49:39.356Z,22.74
2023-05-14T11:50:39.666Z,22.55
2023-05-14T11:51:40.300Z,22.77
2023-05-14T11:52:41.137Z,22.94
2023-05-14T11:53:41.015Z,22.86
2023-05-14T11:54:43.178Z,22.38
2023-05-14T11:55:41.846Z,21.97
2023-05-14T11:56:42.154Z,22.41
2023-05-14T11:57:43.396Z,22.71
2023-05-14T11:59:45.444Z,22.89
2023-05-14T12:00:46.281Z,22.96
2023-05-14T12:01:46.201Z,22.89
2023-05-14T12:02:48.731Z,22.84
2023-05-14T12:03:46.895Z,22.94
2023-05-14T12:04:51.282Z,23.1
2023-05-14T12:06:53.805Z,23.02
2023-05-14T12:07:54.207Z,22.92
2023-05-14T12:08:56.409Z,22.89
2023-05-14T12:09:55.142Z,22.88
2023-05-14T12:10:56.227Z,22.71
2023-05-14T12:11:55.604Z,22.84
2023-05-14T12:12:56.284Z,22.64
2023-05-14T12:13:57.013Z,22.6
2023-05-14T12:15:00.188Z,22.65
2023-05-14T12:15:59.713Z,22.56
2023-05-14T12:16:58.071Z,22.55
2023-05-14T12:17:58.480Z,22.44
2023-05-14T12:19:02.114Z,22.38
2023-05-14T12:20:01.061Z,21.99
2023-05-14T12:21:04.176Z,22
2023-05-14T12:22:02.300Z,22.46
2023-05-14T12:23:01.834Z,22.56
2023-05-14T12:24:02.441Z,22.55
2023-05-14T12:25:02.713Z,22.46
2023-05-14T12:26:07.262Z,22.59
2023-05-14T12:27:05.287Z,22.68
2023-05-14T12:29:07.255Z,22.82
2023-05-14T12:31:09.101Z,22.5
2023-05-14T12:32:09.937Z,22.36
2023-05-14T12:33:10.264Z,22.13
2023-05-14T12:34:10.346Z,21.93
2023-05-14T12:35:10.707Z,21.82
2023-05-14T12:36:21.183Z,21.8
2023-05-14T12:37:14.577Z,21.8
2023-05-14T12:38:14.787Z,21.74
2023-05-14T12:39:15.198Z,21.7
2023-05-14T12:40:15.835Z,21.72
2023-05-14T12:41:16.214Z,21.72
2023-05-14T12:42:16.386Z,22.01
2023-05-14T12:43:16.970Z,22.34
2023-05-14T12:44:17.856Z,22.69
2023-05-14T12:45:18.009Z,23.04
2023-05-14T12:46:18.337Z,23.31
2023-05-14T12:47:19.160Z,23.34
2023-05-14T12:48:19.020Z,22.98
2023-05-14T12:49:19.775Z,22.61
2023-05-14T12:50:20.293Z,22.46
2023-05-14T12:51:20.711Z,22.17
2023-05-14T12:52:35.948Z,22.13
2023-05-14T12:53:24.750Z,22.04
2023-05-14T12:54:24.972Z,21.9
2023-05-14T12:55:25.506Z,21.96
2023-05-14T12:56:25.923Z,22
2023-05-14T12:57:26.901Z,22.24
2023-05-14T12:58:26.897Z,22.54
2023-05-14T12:59:27.111Z,22.45
2023-05-14T13:00:27.516Z,22.39
2023-05-14T13:01:28.018Z,22.3
2023-05-14T13:02:28.406Z,22.24
2023-05-14T13:03:28.875Z,22.04
2023-05-14T13:04:29.337Z,21.92
2023-05-14T13:05:29.599Z,21.88
2023-05-14T13:06:30.017Z,21.81
2023-05-14T13:07:31.055Z,21.71
2023-05-14T13:08:30.746Z,21.64
2023-05-14T13:09:31.169Z,21.68
2023-05-14T13:10:31.693Z,21.66
2023-05-14T13:11:31.996Z,21.53
2023-05-14T13:12:32.442Z,21.42
2023-05-14T13:13:32.961Z,21.39
2023-05-14T13:14:33.194Z,21.49
2023-05-14T13:15:33.884Z,21.54
2023-05-14T13:16:34.192Z,21.51
2023-05-14T13:17:34.584Z,21.49
2023-05-14T13:18:35.001Z,21.52
2023-05-14T13:19:35.461Z,21.51
2023-05-14T13:20:36.223Z,21.56
2023-05-14T13:21:36.157Z,21.6
2023-05-14T13:22:37.009Z,21.61
2023-05-14T13:23:36.988Z,21.58
2023-05-14T13:24:37.451Z,21.57
2023-05-14T13:25:37.926Z,21.53
2023-05-14T13:26:38.223Z,21.49
2023-05-14T13:27:38.575Z,21.42
2023-05-14T13:28:38.988Z,21.4
2023-05-14T13:29:39.403Z,21.35
2023-05-14T13:30:39.862Z,21.33
2023-05-14T13:31:40.232Z,21.32
2023-05-14T13:32:42.274Z,21.31
2023-05-14T13:33:43.516Z,21.31
2023-05-14T13:34:41.468Z,21.28
2023-05-14T13:35:41.800Z,21.29
2023-05-14T13:36:42.608Z,21.25
2023-05-14T13:37:45.218Z,21.25
2023-05-14T13:38:42.929Z,21.23
2023-05-14T13:39:43.447Z,21.22
2023-05-14T13:40:43.863Z,21.14
2023-05-14T13:41:44.188Z,21.13
2023-05-14T13:42:44.725Z,21.15